Jurbise, Belgium
Current Conditions -  °F | °C
As of 10:25 PM on Friday 24 Oct 2014 (Local Time) from EBCV Reporting Station
Broken Clouds Broken Clouds  
Wind Chill: 52°   Ceiling: 1400
Heat Index: 52°   Visibility: 6mi
Dew Point: 52°   Wind: 14mph
Humidity: 100%   Direction: 200°SSW
Pressure: 30.03"   Gusts: NA
Location:  50.53°N, 3.91°E
Report Text: EBCV 242025Z AUTO 20012KT 9999 FEW004/// SCT011/// BKN014/// 11/11 Q1017 GRN
Loading
Personal Weather Stations






























Interactive Weather Map
Tropical Storm Tracking
New forecast layout! Learn more

10-Day Weather Forecast

Advertisements
Track Severe Weather on mobile